sensor_id;sensor_type;location;lat;lon;timestamp;P1;durP1;ratioP1;P2;durP2;ratioP2
77166;SDS011;66141;7.324;79.980;2023-03-01T04:11:28;5.28;;;2.78;;
77166;SDS011;66141;7.324;79.980;2023-03-01T04:11:34;1.80;;;1.66;;
77166;SDS011;66141;7.324;79.980;2023-03-01T04:11:39;2.70;;;2.47;;
77166;SDS011;66141;7.324;79.980;2023-03-01T04:11:45;4.80;;;3.28;;
77166;SDS011;66141;7.324;79.980;2023-03-01T04:11:51;4.80;;;3.13;;
77166;SDS011;66141;7.324;79.980;2023-03-01T04:12:24;9.05;;;4.75;;
77166;SDS011;66141;7.324;79.980;2023-03-01T04:12:30;8.15;;;4.75;;
77166;SDS011;66141;7.324;79.980;2023-03-01T04:12:36;12.20;;;5.97;;
77166;SDS011;66141;7.324;79.980;2023-03-01T04:12:42;12.88;;;6.30;;
77166;SDS011;66141;7.324;79.980;2023-03-01T04:12:50;12.70;;;6.10;;
77166;SDS011;66141;7.324;79.980;2023-03-01T04:12:56;12.48;;;6.13;;
77166;SDS011;66141;7.324;79.980;2023-03-01T04:13:02;12.65;;;6.05;;
77166;SDS011;66141;7.324;79.980;2023-03-01T04:13:09;10.95;;;5.45;;
77166;SDS011;66141;7.324;79.980;2023-03-01T04:13:20;10.57;;;5.40;;
77166;SDS011;66141;7.324;79.980;2023-03-01T04:13:27;10.02;;;5.21;;
77166;SDS011;66141;7.324;79.980;2023-03-01T04:13:32;8.88;;;5.07;;
77166;SDS011;66141;7.324;79.980;2023-03-01T04:13:38;7.72;;;4.72;;
77166;SDS011;66141;7.324;79.980;2023-03-01T04:13:44;7.13;;;4.53;;
77166;SDS011;66141;7.324;79.980;2023-03-01T04:13:50;6.55;;;4.60;;
77166;SDS011;66141;7.324;79.980;2023-03-01T04:13:56;6.60;;;4.70;;
77166;SDS011;66141;7.324;79.980;2023-03-01T04:14:03;7.84;;;5.02;;
77166;SDS011;66141;7.324;79.980;2023-03-01T04:14:09;8.78;;;5.40;;
77166;SDS011;66141;7.324;79.980;2023-03-01T04:14:15;9.80;;;5.80;;
77166;SDS011;66141;7.324;79.980;2023-03-01T04:14:20;10.45;;;5.93;;
77166;SDS011;66141;7.324;79.980;2023-03-01T04:14:26;10.02;;;5.57;;
77166;SDS011;66141;7.324;79.980;2023-03-01T04:14:32;9.17;;;5.40;;
77166;SDS011;66141;7.324;79.980;2023-03-01T04:14:38;9.06;;;5.18;;
77166;SDS011;66141;7.324;79.980;2023-03-01T04:14:44;8.73;;;4.90;;
77166;SDS011;66141;7.324;79.980;2023-03-01T04:14:50;7.33;;;4.40;;
77166;SDS011;66141;7.324;79.980;2023-03-01T04:14:55;7.95;;;4.65;;
77166;SDS011;66141;7.324;79.980;2023-03-01T04:15:04;9.13;;;4.77;;
77166;SDS011;66141;7.324;79.980;2023-03-01T04:15:19;9.05;;;4.85;;
77166;SDS011;66141;7.324;79.980;2023-03-01T04:15:24;8.38;;;4.43;;
77166;SDS011;66141;7.324;79.980;2023-03-01T04:15:31;8.10;;;4.23;;
77166;SDS011;66141;7.324;79.980;2023-03-01T04:15:37;7.50;;;4.05;;
77166;SDS011;66141;7.324;79.980;2023-03-01T04:15:43;6.72;;;3.96;;
77166;SDS011;66141;7.324;79.980;2023-03-01T04:15:50;6.80;;;4.00;;
77166;SDS011;66141;7.324;79.980;2023-03-01T04:15:55;6.24;;;3.96;;
77166;SDS011;66141;7.324;79.980;2023-03-01T04:16:01;4.97;;;3.80;;
77166;SDS011;66141;7.324;79.980;2023-03-01T04:16:07;4.93;;;3.58;;
77166;SDS011;66141;7.324;79.980;2023-03-01T04:16:12;4.97;;;3.72;;
77166;SDS011;66141;7.324;79.980;2023-03-01T04:16:18;5.73;;;4.03;;
77166;SDS011;66141;7.324;79.980;2023-03-01T04:16:24;6.72;;;4.50;;
77166;SDS011;66141;7.324;79.980;2023-03-01T04:16:30;7.87;;;4.80;;
77166;SDS011;66141;7.324;79.980;2023-03-01T04:16:35;7.70;;;4.93;;
77166;SDS011;66141;7.324;79.980;2023-03-01T04:16:41;8.40;;;5.37;;
77166;SDS011;66141;7.324;79.980;2023-03-01T04:16:47;9.23;;;5.40;;
77166;SDS011;66141;7.324;79.980;2023-03-01T04:16:53;8.98;;;5.35;;
77166;SDS011;66141;7.324;79.980;2023-03-01T04:16:58;8.73;;;5.43;;
77166;SDS011;66141;7.324;79.980;2023-03-01T04:17:04;9.68;;;5.75;;
77166;SDS011;66141;7.324;79.980;2023-03-01T04:17:10;9.67;;;5.50;;
77166;SDS011;66141;7.324;79.980;2023-03-01T04:17:16;9.18;;;5.32;;
77166;SDS011;66141;7.324;79.980;2023-03-01T04:17:21;9.40;;;5.40;;
77166;SDS011;66141;7.324;79.980;2023-03-01T04:17:27;9.00;;;5.20;;
77166;SDS011;66141;7.324;79.980;2023-03-01T04:17:33;8.45;;;5.03;;
77166;SDS011;66141;7.324;79.980;2023-03-01T04:17:40;9.17;;;5.30;;
77166;SDS011;66141;7.324;79.980;2023-03-01T04:17:46;8.86;;;5.08;;
77166;SDS011;66141;7.324;79.980;2023-03-01T04:17:52;8.07;;;4.83;;
77166;SDS011;66141;7.324;79.980;2023-03-01T04:17:58;8.48;;;4.84;;
77166;SDS011;66141;7.324;79.980;2023-03-01T04:18:05;9.27;;;4.93;;
77166;SDS011;66141;7.324;79.980;2023-03-01T04:18:14;8.85;;;5.07;;
77166;SDS011;66141;7.324;79.980;2023-03-01T04:18:21;8.60;;;5.27;;
77166;SDS011;66141;7.324;79.980;2023-03-01T04:18:27;7.70;;;4.97;;
77166;SDS011;66141;7.324;79.980;2023-03-01T04:18:33;7.18;;;5.07;;
77166;SDS011;66141;7.324;79.980;2023-03-01T04:18:39;7.27;;;4.80;;
77166;SDS011;66141;7.324;79.980;2023-03-01T04:18:45;7.05;;;4.38;;
77166;SDS011;66141;7.324;79.980;2023-03-01T04:18:50;7.13;;;4.45;;
77166;SDS011;66141;7.324;79.980;2023-03-01T04:18:58;7.37;;;4.70;;
77166;SDS011;66141;7.324;79.980;2023-03-01T04:19:05;6.47;;;4.40;;
77166;SDS011;66141;7.324;79.980;2023-03-01T04:19:13;7.17;;;5.00;;
77166;SDS011;66141;7.324;79.980;2023-03-01T04:19:20;8.00;;;5.20;;
77166;SDS011;66141;7.324;79.980;2023-03-01T04:19:25;8.38;;;5.30;;
77166;SDS011;66141;7.324;79.980;2023-03-01T04:19:32;8.80;;;5.47;;
77166;SDS011;66141;7.324;79.980;2023-03-01T04:19:41;8.30;;;5.27;;
77166;SDS011;66141;7.324;79.980;2023-03-01T04:19:50;6.64;;;4.49;;
77166;SDS011;66141;7.324;79.980;2023-03-01T04:19:55;6.93;;;4.27;;
77166;SDS011;66141;7.324;79.980;2023-03-01T04:20:01;6.55;;;4.20;;
77166;SDS011;66141;7.324;79.980;2023-03-01T04:20:14;7.10;;;4.40;;
77166;SDS011;66141;7.324;79.980;2023-03-01T04:20:30;8.07;;;4.80;;
77166;SDS011;66141;7.324;79.980;2023-03-01T04:20:36;8.00;;;4.93;;
77166;SDS011;66141;7.324;79.980;2023-03-01T04:20:42;7.20;;;4.78;;
77166;SDS011;66141;7.324;79.980;2023-03-01T04:20:48;7.80;;;4.77;;
77166;SDS011;66141;7.324;79.980;2023-03-01T04:20:54;7.43;;;4.53;;
77166;SDS011;66141;7.324;79.980;2023-03-01T04:21:00;7.00;;;4.38;;
77166;SDS011;66141;7.324;79.980;2023-03-01T04:21:05;7.53;;;4.27;;
77166;SDS011;66141;7.324;79.980;2023-03-01T04:21:11;7.40;;;4.40;;
77166;SDS011;66141;7.324;79.980;2023-03-01T04:21:17;6.90;;;4.40;;
77166;SDS011;66141;7.324;79.980;2023-03-01T04:21:25;7.28;;;4.58;;
77166;SDS011;66141;7.324;79.980;2023-03-01T04:21:31;8.33;;;5.03;;
77166;SDS011;66141;7.324;79.980;2023-03-01T04:21:36;7.78;;;5.25;;
77166;SDS011;66141;7.324;79.980;2023-03-01T04:21:42;8.07;;;5.40;;
77166;SDS011;66141;7.324;79.980;2023-03-01T04:21:48;8.27;;;5.60;;
77166;SDS011;66141;7.324;79.980;2023-03-01T04:21:53;8.43;;;5.75;;
77166;SDS011;66141;7.324;79.980;2023-03-01T04:21:59;8.48;;;5.80;;
77166;SDS011;66141;7.324;79.980;2023-03-01T04:22:05;8.15;;;5.43;;
77166;SDS011;66141;7.324;79.980;2023-03-01T04:22:14;7.61;;;4.73;;
77166;SDS011;66141;7.324;79.980;2023-03-01T04:22:23;7.07;;;4.51;;
77166;SDS011;66141;7.324;79.980;2023-03-01T04:22:34;7.20;;;4.56;;
77166;SDS011;66141;7.324;79.980;2023-03-01T04:22:40;7.53;;;4.90;;
77166;SDS011;66141;7.324;79.980;2023-03-01T04:22:46;7.85;;;5.03;;
77166;SDS011;66141;7.324;79.980;2023-03-01T04:22:59;8.30;;;5.23;;
77166;SDS011;66141;7.324;79.980;2023-03-01T04:23:08;8.48;;;5.44;;
77166;SDS011;66141;7.324;79.980;2023-03-01T04:23:25;9.36;;;5.57;;
77166;SDS011;66141;7.324;79.980;2023-03-01T04:23:31;8.77;;;5.32;;
77166;SDS011;66141;7.324;79.980;2023-03-01T04:23:36;8.35;;;5.32;;
77166;SDS011;66141;7.324;79.980;2023-03-01T04:23:42;7.80;;;5.27;;
77166;SDS011;66141;7.324;79.980;2023-03-01T04:23:48;7.53;;;4.72;;
77166;SDS011;66141;7.324;79.980;2023-03-01T04:23:57;6.66;;;4.34;;
77166;SDS011;66141;7.324;79.980;2023-03-01T04:24:03;6.32;;;4.10;;
77166;SDS011;66141;7.324;79.980;2023-03-01T04:24:09;6.60;;;3.95;;
77166;SDS011;66141;7.324;79.980;2023-03-01T04:24:15;7.78;;;4.10;;
77166;SDS011;66141;7.324;79.980;2023-03-01T04:24:21;8.38;;;4.35;;
77166;SDS011;66141;7.324;79.980;2023-03-01T04:24:28;8.93;;;4.77;;
77166;SDS011;66141;7.324;79.980;2023-03-01T04:24:33;9.07;;;4.80;;
77166;SDS011;66141;7.324;79.980;2023-03-01T04:24:39;8.63;;;4.72;;
77166;SDS011;66141;7.324;79.980;2023-03-01T04:24:45;7.38;;;4.70;;
77166;SDS011;66141;7.324;79.980;2023-03-01T04:24:50;7.17;;;4.63;;
77166;SDS011;66141;7.324;79.980;2023-03-01T04:24:56;6.47;;;4.35;;
77166;SDS011;66141;7.324;79.980;2023-03-01T04:25:02;6.30;;;4.20;;
77166;SDS011;66141;7.324;79.980;2023-03-01T04:25:07;6.77;;;4.33;;
77166;SDS011;66141;7.324;79.980;2023-03-01T04:25:13;6.80;;;4.20;;
77166;SDS011;66141;7.324;79.980;2023-03-01T04:25:20;6.42;;;4.04;;
77166;SDS011;66141;7.324;79.980;2023-03-01T04:25:26;6.57;;;4.20;;
77166;SDS011;66141;7.324;79.980;2023-03-01T04:25:31;6.50;;;4.07;;
77166;SDS011;66141;7.324;79.980;2023-03-01T04:25:38;5.97;;;3.90;;
77166;SDS011;66141;7.324;79.980;2023-03-01T04:25:48;6.13;;;3.80;;
77166;SDS011;66141;7.324;79.980;2023-03-01T04:25:59;6.13;;;3.72;;
77166;SDS011;66141;7.324;79.980;2023-03-01T04:26:05;6.20;;;3.85;;
77166;SDS011;66141;7.324;79.980;2023-03-01T04:26:11;6.47;;;3.93;;
77166;SDS011;66141;7.324;79.980;2023-03-01T04:26:16;6.25;;;4.18;;
77166;SDS011;66141;7.324;79.980;2023-03-01T04:26:22;6.00;;;4.03;;
77166;SDS011;66141;7.324;79.980;2023-03-01T04:26:28;6.00;;;3.93;;
77166;SDS011;66141;7.324;79.980;2023-03-01T04:26:33;6.13;;;4.07;;
77166;SDS011;66141;7.324;79.980;2023-03-01T04:26:39;6.37;;;4.07;;
77166;SDS011;66141;7.324;79.980;2023-03-01T04:26:44;6.10;;;4.03;;
77166;SDS011;66141;7.324;79.980;2023-03-01T04:26:50;6.78;;;4.20;;
77166;SDS011;66141;7.324;79.980;2023-03-01T04:26:56;6.97;;;4.50;;
77166;SDS011;66141;7.324;79.980;2023-03-01T04:27:02;7.50;;;4.78;;
77166;SDS011;66141;7.324;79.980;2023-03-01T04:27:07;7.32;;;4.95;;
77166;SDS011;66141;7.324;79.980;2023-03-01T04:27:13;7.63;;;5.13;;
77166;SDS011;66141;7.324;79.980;2023-03-01T04:27:19;7.55;;;5.10;;
77166;SDS011;66141;7.324;79.980;2023-03-01T04:27:24;7.30;;;4.95;;
77166;SDS011;66141;7.324;79.980;2023-03-01T04:27:30;8.57;;;4.90;;
77166;SDS011;66141;7.324;79.980;2023-03-01T04:27:35;8.52;;;4.75;;
77166;SDS011;66141;7.324;79.980;2023-03-01T04:27:41;8.67;;;4.63;;
77166;SDS011;66141;7.324;79.980;2023-03-01T04:27:47;8.90;;;4.60;;
77166;SDS011;66141;7.324;79.980;2023-03-01T04:27:52;9.52;;;4.97;;
77166;SDS011;66141;7.324;79.980;2023-03-01T04:27:58;9.13;;;5.20;;
77166;SDS011;66141;7.324;79.980;2023-03-01T04:28:04;9.60;;;5.35;;
77166;SDS011;66141;7.324;79.980;2023-03-01T04:28:09;10.07;;;5.50;;
77166;SDS011;66141;7.324;79.980;2023-03-01T04:28:15;9.93;;;5.57;;
77166;SDS011;66141;7.324;79.980;2023-03-01T04:28:28;9.30;;;5.70;;
77166;SDS011;66141;7.324;79.980;2023-03-01T04:28:37;9.04;;;5.62;;
77166;SDS011;66141;7.324;79.980;2023-03-01T04:28:45;8.38;;;5.57;;
77166;SDS011;66141;7.324;79.980;2023-03-01T04:28:53;7.43;;;5.02;;
77166;SDS011;66141;7.324;79.980;2023-03-01T04:28:58;7.83;;;5.30;;
77166;SDS011;66141;7.324;79.980;2023-03-01T04:29:04;9.02;;;5.65;;
77166;SDS011;66141;7.324;79.980;2023-03-01T04:29:10;10.13;;;5.93;;
77166;SDS011;66141;7.324;79.980;2023-03-01T04:29:15;9.67;;;5.83;;
77166;SDS011;66141;7.324;79.980;2023-03-01T04:29:21;10.05;;;6.07;;
77166;SDS011;66141;7.324;79.980;2023-03-01T04:29:27;10.20;;;5.83;;
77166;SDS011;66141;7.324;79.980;2023-03-01T04:29:32;9.52;;;5.63;;
77166;SDS011;66141;7.324;79.980;2023-03-01T04:29:38;8.77;;;5.60;;
77166;SDS011;66141;7.324;79.980;2023-03-01T04:29:43;10.27;;;5.93;;
77166;SDS011;66141;7.324;79.980;2023-03-01T04:29:49;11.75;;;6.35;;
77166;SDS011;66141;7.324;79.980;2023-03-01T04:29:55;12.00;;;6.87;;
77166;SDS011;66141;7.324;79.980;2023-03-01T04:30:01;12.30;;;6.88;;
77166;SDS011;66141;7.324;79.980;2023-03-01T04:30:07;12.23;;;6.63;;
77166;SDS011;66141;7.324;79.980;2023-03-01T04:30:13;11.90;;;6.35;;
77166;SDS011;66141;7.324;79.980;2023-03-01T04:30:18;11.05;;;5.95;;
77166;SDS011;66141;7.324;79.980;2023-03-01T04:30:24;10.23;;;5.65;;
77166;SDS011;66141;7.324;79.980;2023-03-01T04:30:30;9.90;;;5.43;;
77166;SDS011;66141;7.324;79.980;2023-03-01T04:30:40;10.09;;;5.06;;
77166;SDS011;66141;7.324;79.980;2023-03-01T04:30:46;10.70;;;4.93;;
77166;SDS011;66141;7.324;79.980;2023-03-01T04:30:55;10.73;;;4.83;;
77166;SDS011;66141;7.324;79.980;2023-03-01T04:31:06;10.32;;;4.56;;
77166;SDS011;66141;7.324;79.980;2023-03-01T04:31:18;10.23;;;4.99;;
77166;SDS011;66141;7.324;79.980;2023-03-01T04:31:26;11.03;;;5.90;;
77166;SDS011;66141;7.324;79.980;2023-03-01T04:31:31;12.68;;;6.63;;
77166;SDS011;66141;7.324;79.980;2023-03-01T04:31:37;13.03;;;7.17;;
77166;SDS011;66141;7.324;79.980;2023-03-01T04:31:43;11.85;;;6.88;;
77166;SDS011;66141;7.324;79.980;2023-03-01T04:31:48;12.02;;;6.63;;
77166;SDS011;66141;7.324;79.980;2023-03-01T04:31:54;10.93;;;5.87;;
77166;SDS011;66141;7.324;79.980;2023-03-01T04:32:00;9.63;;;5.57;;
77166;SDS011;66141;7.324;79.980;2023-03-01T04:32:05;8.40;;;4.75;;
77166;SDS011;66141;7.324;79.980;2023-03-01T04:32:11;7.80;;;4.40;;
77166;SDS011;66141;7.324;79.980;2023-03-01T04:32:18;6.43;;;4.12;;
77166;SDS011;66141;7.324;79.980;2023-03-01T04:32:24;6.97;;;4.37;;
77166;SDS011;66141;7.324;79.980;2023-03-01T04:32:30;7.85;;;4.78;;
77166;SDS011;66141;7.324;79.980;2023-03-01T04:32:35;8.68;;;5.25;;
77166;SDS011;66141;7.324;79.980;2023-03-01T04:32:41;9.30;;;5.80;;
77166;SDS011;66141;7.324;79.980;2023-03-01T04:32:47;11.10;;;6.38;;
77166;SDS011;66141;7.324;79.980;2023-03-01T04:32:52;11.87;;;6.70;;
77166;SDS011;66141;7.324;79.980;2023-03-01T04:32:58;11.27;;;6.53;;
77166;SDS011;66141;7.324;79.980;2023-03-01T04:33:05;11.27;;;6.30;;
77166;SDS011;66141;7.324;79.980;2023-03-01T04:33:10;10.65;;;5.60;;
77166;SDS011;66141;7.324;79.980;2023-03-01T04:33:17;8.68;;;4.55;;
77166;SDS011;66141;7.324;79.980;2023-03-01T04:33:23;8.06;;;4.58;;
77166;SDS011;66141;7.324;79.980;2023-03-01T04:33:29;8.00;;;4.60;;
77166;SDS011;66141;7.324;79.980;2023-03-01T04:33:34;8.30;;;4.83;;
77166;SDS011;66141;7.324;79.980;2023-03-01T04:33:44;9.50;;;5.35;;
77166;SDS011;66141;7.324;79.980;2023-03-01T04:33:54;11.23;;;5.93;;
77166;SDS011;66141;7.324;79.980;2023-03-01T04:33:59;10.54;;;5.60;;
77166;SDS011;66141;7.324;79.980;2023-03-01T04:34:05;9.57;;;5.05;;
77166;SDS011;66141;7.324;79.980;2023-03-01T04:34:11;9.20;;;4.80;;
77166;SDS011;66141;7.324;79.980;2023-03-01T04:34:18;8.23;;;4.73;;
77166;SDS011;66141;7.324;79.980;2023-03-01T04:34:24;8.13;;;4.45;;
77166;SDS011;66141;7.324;79.980;2023-03-01T04:34:33;7.80;;;4.60;;
77166;SDS011;66141;7.324;79.980;2023-03-01T04:34:38;7.18;;;4.68;;
77166;SDS011;66141;7.324;79.980;2023-03-01T04:34:44;6.82;;;4.50;;
77166;SDS011;66141;7.324;79.980;2023-03-01T04:34:50;6.47;;;4.53;;
77166;SDS011;66141;7.324;79.980;2023-03-01T04:34:55;6.45;;;4.78;;
77166;SDS011;66141;7.324;79.980;2023-03-01T04:35:01;6.73;;;4.83;;
77166;SDS011;66141;7.324;79.980;2023-03-01T04:35:07;7.72;;;4.72;;
77166;SDS011;66141;7.324;79.980;2023-03-01T04:35:13;8.30;;;5.17;;
77166;SDS011;66141;7.324;79.980;2023-03-01T04:35:18;9.35;;;5.35;;
77166;SDS011;66141;7.324;79.980;2023-03-01T04:35:24;10.03;;;5.20;;
77166;SDS011;66141;7.324;79.980;2023-03-01T04:35:30;9.93;;;5.05;;
77166;SDS011;66141;7.324;79.980;2023-03-01T04:35:36;8.57;;;4.85;;
77166;SDS011;66141;7.324;79.980;2023-03-01T04:35:42;7.93;;;4.40;;
77166;SDS011;66141;7.324;79.980;2023-03-01T04:35:48;6.35;;;3.95;;
77166;SDS011;66141;7.324;79.980;2023-03-01T04:35:56;5.52;;;3.72;;
77166;SDS011;66141;7.324;79.980;2023-03-01T04:36:02;5.32;;;3.83;;
77166;SDS011;66141;7.324;79.980;2023-03-01T04:36:10;7.10;;;4.33;;
77166;SDS011;66141;7.324;79.980;2023-03-01T04:36:16;8.27;;;4.70;;
77166;SDS011;66141;7.324;79.980;2023-03-01T04:36:23;8.18;;;4.72;;
77166;SDS011;66141;7.324;79.980;2023-03-01T04:36:29;9.08;;;5.16;;
77166;SDS011;66141;7.324;79.980;2023-03-01T04:36:35;8.38;;;4.70;;
77166;SDS011;66141;7.324;79.980;2023-03-01T04:36:41;8.18;;;4.75;;
77166;SDS011;66141;7.324;79.980;2023-03-01T04:36:46;8.00;;;4.75;;
77166;SDS011;66141;7.324;79.980;2023-03-01T04:36:52;8.53;;;4.93;;
77166;SDS011;66141;7.324;79.980;2023-03-01T04:36:58;8.30;;;4.47;;
77166;SDS011;66141;7.324;79.980;2023-03-01T04:37:04;9.15;;;4.80;;
77166;SDS011;66141;7.324;79.980;2023-03-01T04:37:13;9.44;;;4.99;;
77166;SDS011;66141;7.324;79.980;2023-03-01T04:37:21;10.87;;;4.97;;
77166;SDS011;66141;7.324;79.980;2023-03-01T04:37:26;11.37;;;5.23;;
77166;SDS011;66141;7.324;79.980;2023-03-01T04:37:32;11.05;;;5.45;;
77166;SDS011;66141;7.324;79.980;2023-03-01T04:37:38;11.90;;;5.63;;
77166;SDS011;66141;7.324;79.980;2023-03-01T04:37:44;11.50;;;5.77;;
77166;SDS011;66141;7.324;79.980;2023-03-01T04:37:50;11.04;;;5.90;;
77166;SDS011;66141;7.324;79.980;2023-03-01T04:37:56;10.27;;;5.77;;
77166;SDS011;66141;7.324;79.980;2023-03-01T04:38:01;9.57;;;5.60;;
77166;SDS011;66141;7.324;79.980;2023-03-01T04:38:07;8.82;;;5.40;;
77166;SDS011;66141;7.324;79.980;2023-03-01T04:38:13;8.75;;;5.32;;
77166;SDS011;66141;7.324;79.980;2023-03-01T04:38:19;9.67;;;5.53;;
77166;SDS011;66141;7.324;79.980;2023-03-01T04:38:26;11.30;;;5.96;;
77166;SDS011;66141;7.324;79.980;2023-03-01T04:38:31;11.65;;;6.15;;
77166;SDS011;66141;7.324;79.980;2023-03-01T04:38:37;12.07;;;6.13;;
77166;SDS011;66141;7.324;79.980;2023-03-01T04:38:44;10.97;;;5.77;;
77166;SDS011;66141;7.324;79.980;2023-03-01T04:38:53;10.09;;;5.76;;
77166;SDS011;66141;7.324;79.980;2023-03-01T04:38:59;9.97;;;5.77;;
77166;SDS011;66141;7.324;79.980;2023-03-01T04:39:04;11.50;;;6.03;;
77166;SDS011;66141;7.324;79.980;2023-03-01T04:39:17;11.59;;;6.07;;
77166;SDS011;66141;7.324;79.980;2023-03-01T04:39:22;10.95;;;5.70;;
77166;SDS011;66141;7.324;79.980;2023-03-01T04:39:28;10.67;;;5.53;;
77166;SDS011;66141;7.324;79.980;2023-03-01T04:39:34;9.75;;;5.25;;
77166;SDS011;66141;7.324;79.980;2023-03-01T04:39:50;8.93;;;5.13;;
77166;SDS011;66141;7.324;79.980;2023-03-01T04:39:56;9.88;;;5.38;;
77166;SDS011;66141;7.324;79.980;2023-03-01T04:40:02;9.48;;;5.70;;
77166;SDS011;66141;7.324;79.980;2023-03-01T04:40:21;10.25;;;6.15;;
77166;SDS011;66141;7.324;79.980;2023-03-01T04:40:26;10.73;;;6.43;;
77166;SDS011;66141;7.324;79.980;2023-03-01T04:40:32;10.70;;;6.30;;
77166;SDS011;66141;7.324;79.980;2023-03-01T04:40:38;10.68;;;6.45;;
77166;SDS011;66141;7.324;79.980;2023-03-01T04:40:44;10.40;;;6.40;;
77166;SDS011;66141;7.324;79.980;2023-03-01T04:40:50;10.25;;;6.13;;
77166;SDS011;66141;7.324;79.980;2023-03-01T04:40:56;9.38;;;5.95;;
77166;SDS011;66141;7.324;79.980;2023-03-01T04:41:02;8.73;;;5.93;;
77166;SDS011;66141;7.324;79.980;2023-03-01T04:41:09;8.50;;;5.97;;
77166;SDS011;66141;7.324;79.980;2023-03-01T04:41:17;8.40;;;5.67;;
77166;SDS011;66141;7.324;79.980;2023-03-01T04:41:23;7.72;;;5.12;;
77166;SDS011;66141;7.324;79.980;2023-03-01T04:41:29;7.48;;;4.58;;
77166;SDS011;66141;7.324;79.980;2023-03-01T04:41:34;7.47;;;4.17;;
77166;SDS011;66141;7.324;79.980;2023-03-01T04:41:40;7.68;;;4.00;;
77166;SDS011;66141;7.324;79.980;2023-03-01T04:41:48;7.48;;;4.07;;
77166;SDS011;66141;7.324;79.980;2023-03-01T04:41:53;7.40;;;4.33;;
77166;SDS011;66141;7.324;79.980;2023-03-01T04:41:59;6.90;;;4.32;;
77166;SDS011;66141;7.324;79.980;2023-03-01T04:42:05;6.53;;;4.37;;
77166;SDS011;66141;7.324;79.980;2023-03-01T04:42:14;6.05;;;4.38;;
77166;SDS011;66141;7.324;79.980;2023-03-01T04:42:20;7.44;;;4.94;;
77166;SDS011;66141;7.324;79.980;2023-03-01T04:42:25;9.52;;;5.90;;
77166;SDS011;66141;7.324;79.980;2023-03-01T04:42:31;10.45;;;6.35;;
77166;SDS011;66141;7.324;79.980;2023-03-01T04:42:38;10.80;;;6.57;;
77166;SDS011;66141;7.324;79.980;2023-03-01T04:42:43;11.05;;;6.70;;
77166;SDS011;66141;7.324;79.980;2023-03-01T04:42:49;10.50;;;6.57;;
77166;SDS011;66141;7.324;79.980;2023-03-01T04:42:55;9.87;;;6.20;;
77166;SDS011;66141;7.324;79.980;2023-03-01T04:43:01;9.30;;;5.97;;
77166;SDS011;66141;7.324;79.980;2023-03-01T04:43:08;8.95;;;5.78;;
77166;SDS011;66141;7.324;79.980;2023-03-01T04:43:14;8.37;;;5.47;;
77166;SDS011;66141;7.324;79.980;2023-03-01T04:43:19;7.30;;;5.03;;
77166;SDS011;66141;7.324;79.980;2023-03-01T04:43:25;6.60;;;4.57;;
77166;SDS011;66141;7.324;79.980;2023-03-01T04:43:31;6.28;;;4.50;;
77166;SDS011;66141;7.324;79.980;2023-03-01T04:43:37;6.35;;;4.55;;
77166;SDS011;66141;7.324;79.980;2023-03-01T04:43:43;6.70;;;4.80;;
77166;SDS011;66141;7.324;79.980;2023-03-01T04:43:48;6.75;;;4.90;;
77166;SDS011;66141;7.324;79.980;2023-03-01T04:43:54;7.23;;;5.03;;
77166;SDS011;66141;7.324;79.980;2023-03-01T04:44:00;7.40;;;4.93;;
77166;SDS011;66141;7.324;79.980;2023-03-01T04:44:06;8.35;;;5.00;;
77166;SDS011;66141;7.324;79.980;2023-03-01T04:44:12;9.13;;;5.03;;
77166;SDS011;66141;7.324;79.980;2023-03-01T04:44:18;9.60;;;5.22;;
77166;SDS011;66141;7.324;79.980;2023-03-01T04:44:24;10.05;;;5.78;;
77166;SDS011;66141;7.324;79.980;2023-03-01T04:44:30;10.70;;;6.10;;
77166;SDS011;66141;7.324;79.980;2023-03-01T04:44:35;10.27;;;6.00;;
77166;SDS011;66141;7.324;79.980;2023-03-01T04:44:41;8.82;;;5.82;;
77166;SDS011;66141;7.324;79.980;2023-03-01T04:44:47;8.40;;;5.38;;
77166;SDS011;66141;7.324;79.980;2023-03-01T04:44:52;7.32;;;4.78;;
77166;SDS011;66141;7.324;79.980;2023-03-01T04:44:58;5.73;;;3.93;;
77166;SDS011;66141;7.324;79.980;2023-03-01T04:45:04;5.85;;;3.70;;
77166;SDS011;66141;7.324;79.980;2023-03-01T04:45:18;6.01;;;3.63;;
77166;SDS011;66141;7.324;79.980;2023-03-01T04:45:23;7.03;;;4.03;;
77166;SDS011;66141;7.324;79.980;2023-03-01T04:45:29;7.95;;;4.72;;
77166;SDS011;66141;7.324;79.980;2023-03-01T04:45:35;7.23;;;4.70;;
77166;SDS011;66141;7.324;79.980;2023-03-01T04:45:40;7.22;;;4.80;;
77166;SDS011;66141;7.324;79.980;2023-03-01T04:45:46;7.25;;;4.80;;
77166;SDS011;66141;7.324;79.980;2023-03-01T04:45:52;6.85;;;4.60;;
77166;SDS011;66141;7.324;79.980;2023-03-01T04:46:01;6.50;;;4.43;;
77166;SDS011;66141;7.324;79.980;2023-03-01T04:46:08;6.96;;;4.61;;
77166;SDS011;66141;7.324;79.980;2023-03-01T04:46:16;7.68;;;5.00;;
77166;SDS011;66141;7.324;79.980;2023-03-01T04:46:22;9.14;;;5.48;;
77166;SDS011;66141;7.324;79.980;2023-03-01T04:46:27;10.50;;;5.67;;
77166;SDS011;66141;7.324;79.980;2023-03-01T04:46:33;11.10;;;5.95;;
77166;SDS011;66141;7.324;79.980;2023-03-01T04:46:39;11.33;;;6.03;;
77166;SDS011;66141;7.324;79.980;2023-03-01T04:46:44;10.93;;;5.93;;
77166;SDS011;66141;7.324;79.980;2023-03-01T04:46:50;10.27;;;5.85;;
77166;SDS011;66141;7.324;79.980;2023-03-01T04:46:56;8.93;;;5.63;;
77166;SDS011;66141;7.324;79.980;2023-03-01T04:47:01;8.82;;;5.53;;
77166;SDS011;66141;7.324;79.980;2023-03-01T04:47:07;9.82;;;5.50;;
77166;SDS011;66141;7.324;79.980;2023-03-01T04:47:13;9.63;;;5.40;;
77166;SDS011;66141;7.324;79.980;2023-03-01T04:47:18;9.18;;;5.30;;
77166;SDS011;66141;7.324;79.980;2023-03-01T04:47:24;9.83;;;5.30;;
77166;SDS011;66141;7.324;79.980;2023-03-01T04:47:30;10.27;;;5.63;;
77166;SDS011;66141;7.324;79.980;2023-03-01T04:47:35;9.85;;;5.68;;
77166;SDS011;66141;7.324;79.980;2023-03-01T04:47:43;10.93;;;5.60;;
77166;SDS011;66141;7.324;79.980;2023-03-01T04:47:49;11.32;;;5.63;;
77166;SDS011;66141;7.324;79.980;2023-03-01T04:47:57;10.48;;;5.38;;
77166;SDS011;66141;7.324;79.980;2023-03-01T04:48:03;9.80;;;5.00;;
77166;SDS011;66141;7.324;79.980;2023-03-01T04:48:09;10.15;;;5.10;;
77166;SDS011;66141;7.324;79.980;2023-03-01T04:48:14;8.48;;;5.10;;
77166;SDS011;66141;7.324;79.980;2023-03-01T04:48:20;8.43;;;5.00;;
77166;SDS011;66141;7.324;79.980;2023-03-01T04:48:26;9.00;;;5.00;;
77166;SDS011;66141;7.324;79.980;2023-03-01T04:48:31;9.20;;;5.17;;
77166;SDS011;66141;7.324;79.980;2023-03-01T04:48:37;9.07;;;5.35;;
77166;SDS011;66141;7.324;79.980;2023-03-01T04:48:44;9.87;;;5.47;;
77166;SDS011;66141;7.324;79.980;2023-03-01T04:48:49;10.48;;;5.85;;
77166;SDS011;66141;7.324;79.980;2023-03-01T04:48:55;10.40;;;5.90;;
77166;SDS011;66141;7.324;79.980;2023-03-01T04:49:01;10.35;;;5.90;;
77166;SDS011;66141;7.324;79.980;2023-03-01T04:49:06;10.30;;;5.63;;
77166;SDS011;66141;7.324;79.980;2023-03-01T04:49:12;8.77;;;4.87;;
77166;SDS011;66141;7.324;79.980;2023-03-01T04:49:18;9.25;;;4.43;;
77166;SDS011;66141;7.324;79.980;2023-03-01T04:49:23;9.10;;;4.40;;
77166;SDS011;66141;7.324;79.980;2023-03-01T04:49:29;8.82;;;4.47;;
77166;SDS011;66141;7.324;79.980;2023-03-01T04:49:35;8.57;;;4.60;;
77166;SDS011;66141;7.324;79.980;2023-03-01T04:49:40;8.97;;;4.93;;
77166;SDS011;66141;7.324;79.980;2023-03-01T04:49:46;9.25;;;5.57;;
77166;SDS011;66141;7.324;79.980;2023-03-01T04:49:52;8.43;;;5.90;;
77166;SDS011;66141;7.324;79.980;2023-03-01T04:49:57;8.98;;;6.18;;
77166;SDS011;66141;7.324;79.980;2023-03-01T04:50:03;9.57;;;6.20;;
77166;SDS011;66141;7.324;79.980;2023-03-01T04:50:09;10.70;;;6.40;;
77166;SDS011;66141;7.324;79.980;2023-03-01T04:50:15;10.28;;;6.20;;
77166;SDS011;66141;7.324;79.980;2023-03-01T04:50:21;10.32;;;5.85;;
77166;SDS011;66141;7.324;79.980;2023-03-01T04:50:28;9.67;;;5.70;;
77166;SDS011;66141;7.324;79.980;2023-03-01T04:50:34;9.13;;;5.77;;